sensor_id;sensor_type;location;lat;lon;timestamp;P1;durP1;ratioP1;P2;durP2;ratioP2
10479;SDS011;12789;42.610;23.040;2023-03-19T07:04:24;33.53;;;14.80;;
10479;SDS011;12789;42.610;23.040;2023-03-19T07:06:51;42.00;;;15.83;;
10479;SDS011;12789;42.610;23.040;2023-03-19T07:11:58;35.37;;;13.33;;
10479;SDS011;12789;42.610;23.040;2023-03-19T07:14:49;39.63;;;14.73;;
10479;SDS011;12789;42.610;23.040;2023-03-19T07:17:38;36.57;;;13.57;;
10479;SDS011;12789;42.610;23.040;2023-03-19T07:30:21;37.13;;;15.27;;
10479;SDS011;12789;42.610;23.040;2023-03-19T07:32:56;29.70;;;14.50;;
10479;SDS011;12789;42.610;23.040;2023-03-19T07:35:37;31.90;;;14.37;;
10479;SDS011;12789;42.610;23.040;2023-03-19T07:41:50;43.70;;;13.97;;
10479;SDS011;12789;42.610;23.040;2023-03-19T07:44:27;32.80;;;14.10;;
10479;SDS011;12789;42.610;23.040;2023-03-19T07:47:22;31.17;;;14.63;;
10479;SDS011;12789;42.610;23.040;2023-03-19T07:50:52;30.53;;;13.23;;
10479;SDS011;12789;42.610;23.040;2023-03-19T07:53:25;25.50;;;11.63;;
10479;SDS011;12789;42.610;23.040;2023-03-19T08:01:32;23.67;;;11.07;;
10479;SDS011;12789;42.610;23.040;2023-03-19T08:09:51;17.10;;;8.53;;
10479;SDS011;12789;42.610;23.040;2023-03-19T08:12:54;24.70;;;8.30;;
10479;SDS011;12789;42.610;23.040;2023-03-19T08:32:07;13.43;;;7.27;;
10479;SDS011;12789;42.610;23.040;2023-03-19T08:35:01;16.00;;;7.00;;
10479;SDS011;12789;42.610;23.040;2023-03-19T08:40:50;13.87;;;6.60;;
10479;SDS011;12789;42.610;23.040;2023-03-19T08:43:35;14.30;;;6.50;;
10479;SDS011;12789;42.610;23.040;2023-03-19T08:46:38;11.30;;;6.60;;
10479;SDS011;12789;42.610;23.040;2023-03-19T08:52:53;12.87;;;6.70;;
10479;SDS011;12789;42.610;23.040;2023-03-19T08:55:31;14.40;;;6.50;;
10479;SDS011;12789;42.610;23.040;2023-03-19T08:58:18;9.77;;;4.93;;
10479;SDS011;12789;42.610;23.040;2023-03-19T09:00:59;10.23;;;5.97;;
10479;SDS011;12789;42.610;23.040;2023-03-19T09:03:37;7.47;;;5.53;;
10479;SDS011;12789;42.610;23.040;2023-03-19T09:09:55;11.87;;;6.10;;
10479;SDS011;12789;42.610;23.040;2023-03-19T09:16:00;9.80;;;5.20;;
10479;SDS011;12789;42.610;23.040;2023-03-19T09:18:52;7.47;;;4.93;;
10479;SDS011;12789;42.610;23.040;2023-03-19T09:21:27;14.87;;;9.93;;
10479;SDS011;12789;42.610;23.040;2023-03-19T09:24:14;6.70;;;5.17;;
10479;SDS011;12789;42.610;23.040;2023-03-19T09:27:19;8.00;;;4.67;;
10479;SDS011;12789;42.610;23.040;2023-03-19T09:29:46;102.27;;;58.67;;
10479;SDS011;12789;42.610;23.040;2023-03-19T09:32:12;38.20;;;24.10;;
10479;SDS011;12789;42.610;23.040;2023-03-19T09:34:39;22.33;;;11.77;;
10479;SDS011;12789;42.610;23.040;2023-03-19T09:37:06;7.43;;;5.77;;
10479;SDS011;12789;42.610;23.040;2023-03-19T09:39:35;5.40;;;4.17;;
10479;SDS011;12789;42.610;23.040;2023-03-19T09:42:05;9.83;;;4.70;;
10479;SDS011;12789;42.610;23.040;2023-03-19T09:44:36;13.60;;;11.13;;
10479;SDS011;12789;42.610;23.040;2023-03-19T09:47:09;7.83;;;4.50;;
10479;SDS011;12789;42.610;23.040;2023-03-19T09:49:38;6.07;;;4.63;;
10479;SDS011;12789;42.610;23.040;2023-03-19T09:52:09;5.97;;;4.07;;
10479;SDS011;12789;42.610;23.040;2023-03-19T09:54:43;6.03;;;4.25;;
10479;SDS011;12789;42.610;23.040;2023-03-19T09:57:10;8.63;;;4.40;;
10479;SDS011;12789;42.610;23.040;2023-03-19T09:59:39;6.55;;;4.60;;
10479;SDS011;12789;42.610;23.040;2023-03-19T10:02:18;14.30;;;4.75;;
10479;SDS011;12789;42.610;23.040;2023-03-19T10:04:55;11.35;;;4.15;;
10479;SDS011;12789;42.610;23.040;2023-03-19T10:07:29;4.65;;;4.03;;
10479;SDS011;12789;42.610;23.040;2023-03-19T10:10:01;5.88;;;4.40;;
10479;SDS011;12789;42.610;23.040;2023-03-19T10:12:33;8.55;;;4.60;;
10479;SDS011;12789;42.610;23.040;2023-03-19T10:15:15;5.90;;;4.05;;
10479;SDS011;12789;42.610;23.040;2023-03-19T10:17:46;5.55;;;4.55;;
10479;SDS011;12789;42.610;23.040;2023-03-19T10:20:16;6.93;;;4.30;;
10479;SDS011;12789;42.610;23.040;2023-03-19T10:22:46;8.00;;;4.30;;
10479;SDS011;12789;42.610;23.040;2023-03-19T10:25:15;5.00;;;4.30;;
10479;SDS011;12789;42.610;23.040;2023-03-19T10:27:44;6.97;;;4.25;;
10479;SDS011;12789;42.610;23.040;2023-03-19T10:30:12;6.13;;;4.63;;
10479;SDS011;12789;42.610;23.040;2023-03-19T10:32:49;9.43;;;4.65;;
10479;SDS011;12789;42.610;23.040;2023-03-19T10:35:19;6.80;;;4.60;;
10479;SDS011;12789;42.610;23.040;2023-03-19T10:37:49;7.57;;;4.95;;
10479;SDS011;12789;42.610;23.040;2023-03-19T10:40:18;7.07;;;4.82;;
10479;SDS011;12789;42.610;23.040;2023-03-19T10:42:59;6.70;;;4.55;;
10479;SDS011;12789;42.610;23.040;2023-03-19T10:45:27;7.32;;;4.97;;
10479;SDS011;12789;42.610;23.040;2023-03-19T10:48:00;7.95;;;4.72;;
10479;SDS011;12789;42.610;23.040;2023-03-19T10:50:28;6.10;;;5.10;;
10479;SDS011;12789;42.610;23.040;2023-03-19T10:52:59;7.00;;;5.03;;
10479;SDS011;12789;42.610;23.040;2023-03-19T10:55:28;7.50;;;4.97;;
10479;SDS011;12789;42.610;23.040;2023-03-19T10:57:56;7.95;;;4.85;;
10479;SDS011;12789;42.610;23.040;2023-03-19T11:00:28;6.20;;;4.57;;
10479;SDS011;12789;42.610;23.040;2023-03-19T11:03:00;8.30;;;5.43;;
10479;SDS011;12789;42.610;23.040;2023-03-19T11:05:29;9.45;;;4.88;;
10479;SDS011;12789;42.610;23.040;2023-03-19T11:07:57;6.22;;;4.38;;
10479;SDS011;12789;42.610;23.040;2023-03-19T11:10:24;7.28;;;4.97;;
10479;SDS011;12789;42.610;23.040;2023-03-19T11:12:53;9.40;;;4.75;;
10479;SDS011;12789;42.610;23.040;2023-03-19T11:15:22;8.38;;;4.90;;
10479;SDS011;12789;42.610;23.040;2023-03-19T11:17:55;4.57;;;3.67;;
10479;SDS011;12789;42.610;23.040;2023-03-19T11:20:25;7.75;;;2.70;;
10479;SDS011;12789;42.610;23.040;2023-03-19T11:22:54;7.13;;;3.20;;
10479;SDS011;12789;42.610;23.040;2023-03-19T11:25:26;6.13;;;3.88;;
10479;SDS011;12789;42.610;23.040;2023-03-19T11:27:57;6.90;;;4.68;;
10479;SDS011;12789;42.610;23.040;2023-03-19T11:30:25;5.28;;;3.80;;
10479;SDS011;12789;42.610;23.040;2023-03-19T11:35:45;5.55;;;4.65;;
10479;SDS011;12789;42.610;23.040;2023-03-19T11:38:17;13.98;;;8.68;;
10479;SDS011;12789;42.610;23.040;2023-03-19T11:40:48;5.85;;;3.50;;
10479;SDS011;12789;42.610;23.040;2023-03-19T11:43:26;7.28;;;4.32;;
10479;SDS011;12789;42.610;23.040;2023-03-19T11:45:59;4.07;;;3.67;;
10479;SDS011;12789;42.610;23.040;2023-03-19T11:48:35;3.80;;;3.10;;
10479;SDS011;12789;42.610;23.040;2023-03-19T11:51:08;2.80;;;2.60;;
10479;SDS011;12789;42.610;23.040;2023-03-19T11:53:36;3.15;;;2.70;;
10479;SDS011;12789;42.610;23.040;2023-03-19T11:56:06;4.10;;;3.15;;
10479;SDS011;12789;42.610;23.040;2023-03-19T11:58:57;2.47;;;2.28;;
10479;SDS011;12789;42.610;23.040;2023-03-19T12:01:35;4.18;;;2.22;;
10479;SDS011;12789;42.610;23.040;2023-03-19T12:04:21;4.05;;;2.90;;
10479;SDS011;12789;42.610;23.040;2023-03-19T12:06:54;45.15;;;33.58;;
10479;SDS011;12789;42.610;23.040;2023-03-19T12:09:28;4.93;;;2.47;;
10479;SDS011;12789;42.610;23.040;2023-03-19T12:11:58;5.70;;;4.50;;
10479;SDS011;12789;42.610;23.040;2023-03-19T12:14:30;3.03;;;2.83;;
10479;SDS011;12789;42.610;23.040;2023-03-19T12:17:06;7.60;;;4.45;;
10479;SDS011;12789;42.610;23.040;2023-03-19T12:22:27;2.38;;;2.17;;
10479;SDS011;12789;42.610;23.040;2023-03-19T12:25:00;2.50;;;2.30;;
10479;SDS011;12789;42.610;23.040;2023-03-19T12:27:30;3.22;;;3.03;;
10479;SDS011;12789;42.610;23.040;2023-03-19T12:29:59;7.25;;;4.20;;
10479;SDS011;12789;42.610;23.040;2023-03-19T12:35:12;3.50;;;3.20;;
10479;SDS011;12789;42.610;23.040;2023-03-19T12:37:43;1.63;;;1.52;;
10479;SDS011;12789;42.610;23.040;2023-03-19T12:40:14;1.70;;;1.58;;
10479;SDS011;12789;42.610;23.040;2023-03-19T12:42:42;2.20;;;1.60;;
10479;SDS011;12789;42.610;23.040;2023-03-19T12:45:17;2.00;;;1.40;;
10479;SDS011;12789;42.610;23.040;2023-03-19T12:47:45;1.15;;;1.05;;
10479;SDS011;12789;42.610;23.040;2023-03-19T12:50:13;1.88;;;1.77;;
10479;SDS011;12789;42.610;23.040;2023-03-19T12:52:43;2.28;;;2.08;;
10479;SDS011;12789;42.610;23.040;2023-03-19T12:55:13;5.43;;;2.08;;
10479;SDS011;12789;42.610;23.040;2023-03-19T12:57:42;1.90;;;1.80;;
10479;SDS011;12789;42.610;23.040;2023-03-19T13:00:12;4.82;;;2.05;;
10479;SDS011;12789;42.610;23.040;2023-03-19T13:02:42;2.25;;;1.98;;
10479;SDS011;12789;42.610;23.040;2023-03-19T13:05:15;5.50;;;1.80;;
10479;SDS011;12789;42.610;23.040;2023-03-19T13:07:50;3.78;;;1.77;;
10479;SDS011;12789;42.610;23.040;2023-03-19T13:10:18;1.80;;;1.70;;
10479;SDS011;12789;42.610;23.040;2023-03-19T13:12:46;1.58;;;1.48;;
10479;SDS011;12789;42.610;23.040;2023-03-19T13:15:14;6.30;;;1.58;;
10479;SDS011;12789;42.610;23.040;2023-03-19T13:17:45;2.75;;;1.70;;
10479;SDS011;12789;42.610;23.040;2023-03-19T13:20:16;2.17;;;1.77;;
10479;SDS011;12789;42.610;23.040;2023-03-19T13:22:48;1.63;;;1.45;;
10479;SDS011;12789;42.610;23.040;2023-03-19T13:25:17;2.72;;;1.50;;
10479;SDS011;12789;42.610;23.040;2023-03-19T13:27:50;2.72;;;1.50;;
10479;SDS011;12789;42.610;23.040;2023-03-19T13:30:18;3.53;;;2.03;;
10479;SDS011;12789;42.610;23.040;2023-03-19T13:32:47;2.08;;;1.42;;
10479;SDS011;12789;42.610;23.040;2023-03-19T13:35:26;1.90;;;1.48;;
10479;SDS011;12789;42.610;23.040;2023-03-19T13:37:55;3.08;;;1.33;;
10479;SDS011;12789;42.610;23.040;2023-03-19T13:43:08;4.97;;;1.90;;
10479;SDS011;12789;42.610;23.040;2023-03-19T13:45:45;1.63;;;1.52;;
10479;SDS011;12789;42.610;23.040;2023-03-19T13:48:31;3.17;;;1.80;;
10479;SDS011;12789;42.610;23.040;2023-03-19T13:51:00;7.90;;;1.50;;
10479;SDS011;12789;42.610;23.040;2023-03-19T13:53:37;2.88;;;1.20;;
10479;SDS011;12789;42.610;23.040;2023-03-19T13:56:05;3.65;;;1.27;;
10479;SDS011;12789;42.610;23.040;2023-03-19T13:58:44;1.88;;;1.63;;
10479;SDS011;12789;42.610;23.040;2023-03-19T14:01:35;1.50;;;1.40;;
10479;SDS011;12789;42.610;23.040;2023-03-19T14:04:02;3.15;;;1.83;;
10479;SDS011;12789;42.610;23.040;2023-03-19T14:06:29;3.60;;;1.10;;
10479;SDS011;12789;42.610;23.040;2023-03-19T14:08:57;2.47;;;1.48;;
10479;SDS011;12789;42.610;23.040;2023-03-19T14:11:24;2.47;;;1.50;;
10479;SDS011;12789;42.610;23.040;2023-03-19T14:13:55;1.80;;;1.48;;
10479;SDS011;12789;42.610;23.040;2023-03-19T14:16:28;3.47;;;1.60;;
10479;SDS011;12789;42.610;23.040;2023-03-19T14:18:56;1.60;;;1.50;;
10479;SDS011;12789;42.610;23.040;2023-03-19T14:21:32;1.58;;;1.40;;
10479;SDS011;12789;42.610;23.040;2023-03-19T14:26:41;3.00;;;2.35;;
10479;SDS011;12789;42.610;23.040;2023-03-19T14:29:12;1.60;;;1.50;;
10479;SDS011;12789;42.610;23.040;2023-03-19T14:31:40;7.15;;;1.50;;
10479;SDS011;12789;42.610;23.040;2023-03-19T14:34:16;2.13;;;1.48;;
10479;SDS011;12789;42.610;23.040;2023-03-19T14:36:46;2.33;;;2.22;;
10479;SDS011;12789;42.610;23.040;2023-03-19T14:39:16;2.15;;;1.52;;
10479;SDS011;12789;42.610;23.040;2023-03-19T14:41:45;1.60;;;1.50;;
10479;SDS011;12789;42.610;23.040;2023-03-19T14:47:03;1.60;;;1.50;;
10479;SDS011;12789;42.610;23.040;2023-03-19T14:52:28;1.80;;;1.60;;
10479;SDS011;12789;42.610;23.040;2023-03-19T14:54:57;2.53;;;1.80;;
10479;SDS011;12789;42.610;23.040;2023-03-19T14:57:25;3.78;;;1.88;;
10479;SDS011;12789;42.610;23.040;2023-03-19T14:59:52;2.13;;;1.80;;
10479;SDS011;12789;42.610;23.040;2023-03-19T15:02:34;2.92;;;1.50;;
10479;SDS011;12789;42.610;23.040;2023-03-19T15:05:01;1.52;;;1.42;;
10479;SDS011;12789;42.610;23.040;2023-03-19T15:07:29;4.00;;;1.58;;
10479;SDS011;12789;42.610;23.040;2023-03-19T15:09:58;1.25;;;1.20;;
10479;SDS011;12789;42.610;23.040;2023-03-19T15:12:37;2.03;;;1.30;;
10479;SDS011;12789;42.610;23.040;2023-03-19T15:15:14;5.80;;;4.40;;
10479;SDS011;12789;42.610;23.040;2023-03-19T15:17:44;2.53;;;2.10;;
10479;SDS011;12789;42.610;23.040;2023-03-19T15:20:17;3.58;;;1.50;;
10479;SDS011;12789;42.610;23.040;2023-03-19T15:22:52;1.17;;;1.02;;
10479;SDS011;12789;42.610;23.040;2023-03-19T15:25:19;1.60;;;1.50;;
10479;SDS011;12789;42.610;23.040;2023-03-19T15:27:46;7.30;;;2.30;;
10479;SDS011;12789;42.610;23.040;2023-03-19T15:30:29;3.85;;;1.90;;
10479;SDS011;12789;42.610;23.040;2023-03-19T15:32:57;4.35;;;1.55;;
10479;SDS011;12789;42.610;23.040;2023-03-19T15:35:28;6.22;;;1.48;;
10479;SDS011;12789;42.610;23.040;2023-03-19T15:37:58;2.80;;;1.90;;
10479;SDS011;12789;42.610;23.040;2023-03-19T15:40:25;3.22;;;2.13;;
10479;SDS011;12789;42.610;23.040;2023-03-19T15:42:54;1.63;;;1.30;;
10479;SDS011;12789;42.610;23.040;2023-03-19T15:45:24;2.40;;;1.10;;
10479;SDS011;12789;42.610;23.040;2023-03-19T15:47:53;6.13;;;1.15;;
10479;SDS011;12789;42.610;23.040;2023-03-19T15:50:30;5.30;;;3.30;;
10479;SDS011;12789;42.610;23.040;2023-03-19T15:52:59;9.13;;;3.88;;
10479;SDS011;12789;42.610;23.040;2023-03-19T15:55:33;3.92;;;2.10;;
10479;SDS011;12789;42.610;23.040;2023-03-19T15:58:03;3.90;;;2.00;;
10479;SDS011;12789;42.610;23.040;2023-03-19T16:00:31;3.60;;;2.63;;
10479;SDS011;12789;42.610;23.040;2023-03-19T16:02:57;10.68;;;3.50;;
10479;SDS011;12789;42.610;23.040;2023-03-19T16:05:25;10.27;;;3.72;;
10479;SDS011;12789;42.610;23.040;2023-03-19T16:07:59;11.48;;;4.32;;
10479;SDS011;12789;42.610;23.040;2023-03-19T16:10:34;13.90;;;6.68;;
10479;SDS011;12789;42.610;23.040;2023-03-19T16:13:01;36.80;;;14.70;;
10479;SDS011;12789;42.610;23.040;2023-03-19T16:15:32;94.53;;;39.80;;
10479;SDS011;12789;42.610;23.040;2023-03-19T16:18:21;90.85;;;42.28;;
10479;SDS011;12789;42.610;23.040;2023-03-19T16:20:53;191.43;;;89.15;;
10479;SDS011;12789;42.610;23.040;2023-03-19T16:23:25;341.48;;;168.85;;
10479;SDS011;12789;42.610;23.040;2023-03-19T16:26:01;116.13;;;55.22;;
10479;SDS011;12789;42.610;23.040;2023-03-19T16:28:31;187.00;;;87.07;;
10479;SDS011;12789;42.610;23.040;2023-03-19T16:30:59;87.32;;;45.85;;
10479;SDS011;12789;42.610;23.040;2023-03-19T16:33:26;82.68;;;41.28;;
10479;SDS011;12789;42.610;23.040;2023-03-19T16:35:59;151.63;;;75.85;;
10479;SDS011;12789;42.610;23.040;2023-03-19T16:38:31;99.43;;;50.75;;
10479;SDS011;12789;42.610;23.040;2023-03-19T16:41:17;90.72;;;45.05;;
10479;SDS011;12789;42.610;23.040;2023-03-19T16:43:55;60.55;;;30.00;;
10479;SDS011;12789;42.610;23.040;2023-03-19T16:46:30;73.75;;;31.70;;
10479;SDS011;12789;42.610;23.040;2023-03-19T16:49:23;64.22;;;31.13;;
10479;SDS011;12789;42.610;23.040;2023-03-19T16:52:05;82.97;;;40.58;;
10479;SDS011;12789;42.610;23.040;2023-03-19T16:55:02;110.70;;;53.38;;
10479;SDS011;12789;42.610;23.040;2023-03-19T16:58:05;201.52;;;103.65;;
10479;SDS011;12789;42.610;23.040;2023-03-19T17:00:53;187.90;;;92.20;;
10479;SDS011;12789;42.610;23.040;2023-03-19T17:04:11;144.98;;;72.32;;
10479;SDS011;12789;42.610;23.040;2023-03-19T17:06:45;105.82;;;56.25;;
10479;SDS011;12789;42.610;23.040;2023-03-19T17:21:44;58.83;;;30.08;;
10479;SDS011;12789;42.610;23.040;2023-03-19T17:24:35;78.80;;;37.20;;
10479;SDS011;12789;42.610;23.040;2023-03-19T17:27:19;68.93;;;28.90;;
10479;SDS011;12789;42.610;23.040;2023-03-19T17:33:51;76.40;;;40.90;;
10479;SDS011;12789;42.610;23.040;2023-03-19T17:37:09;68.38;;;35.10;;
10479;SDS011;12789;42.610;23.040;2023-03-19T17:41:04;56.25;;;29.35;;
10479;SDS011;12789;42.610;23.040;2023-03-19T17:50:18;47.93;;;24.87;;
10479;SDS011;12789;42.610;23.040;2023-03-19T18:30:44;263.97;;;108.83;;
10479;SDS011;12789;42.610;23.040;2023-03-19T18:33:15;280.33;;;115.77;;
10479;SDS011;12789;42.610;23.040;2023-03-19T18:35:50;270.10;;;112.07;;
10479;SDS011;12789;42.610;23.040;2023-03-19T18:38:20;271.80;;;110.73;;
10479;SDS011;12789;42.610;23.040;2023-03-19T18:40:57;249.03;;;108.00;;
10479;SDS011;12789;42.610;23.040;2023-03-19T18:43:52;285.07;;;126.83;;
10479;SDS011;12789;42.610;23.040;2023-03-19T18:46:27;228.23;;;88.93;;
10479;SDS011;12789;42.610;23.040;2023-03-19T18:49:17;209.10;;;78.20;;
10479;SDS011;12789;42.610;23.040;2023-03-19T18:51:55;155.17;;;62.03;;
10479;SDS011;12789;42.610;23.040;2023-03-19T18:54:22;141.23;;;53.23;;
10479;SDS011;12789;42.610;23.040;2023-03-19T18:57:30;101.63;;;41.63;;
10479;SDS011;12789;42.610;23.040;2023-03-19T19:00:21;89.10;;;37.57;;
10479;SDS011;12789;42.610;23.040;2023-03-19T20:46:05;101.87;;;35.80;;
10479;SDS011;12789;42.610;23.040;2023-03-19T20:48:55;107.77;;;40.93;;
10479;SDS011;12789;42.610;23.040;2023-03-19T20:51:27;146.93;;;49.43;;
